createdAt,value
2023-03-04T00:00:33.290Z,97107.66
2023-03-04T00:03:00.950Z,97109.53
2023-03-04T00:05:28.523Z,97112.22
2023-03-04T00:07:56.054Z,97110.44
2023-03-04T00:10:25.450Z,97109.84
2023-03-04T00:12:53.011Z,97108.22
2023-03-04T00:15:20.516Z,97112.69
2023-03-04T00:17:48.074Z,97105.06
2023-03-04T00:20:15.706Z,97107.78
2023-03-04T00:22:43.244Z,97104.72
2023-03-04T00:25:10.827Z,97106.13
2023-03-04T00:27:39.744Z,97106.38
2023-03-04T00:30:09.074Z,97103.81
2023-03-04T00:32:36.855Z,97101.94
2023-03-04T00:35:04.814Z,97096.66
2023-03-04T00:37:32.361Z,97095.13
2023-03-04T00:39:59.889Z,97098.66
2023-03-04T00:42:27.409Z,97099.47
2023-03-04T00:44:56.220Z,97103.22
2023-03-04T00:47:23.720Z,97093.38
2023-03-04T00:49:51.257Z,97095.84
2023-03-04T00:52:18.822Z,97094.31
2023-03-04T00:54:46.351Z,97097.00
2023-03-04T00:57:13.853Z,97093.47
2023-03-04T00:59:43.776Z,97090.44
2023-03-04T01:02:13.186Z,97100.84
2023-03-04T01:04:41.855Z,97087.16
2023-03-04T01:07:09.505Z,97087.31
2023-03-04T01:09:36.993Z,97090.69
2023-03-04T01:12:04.723Z,97085.41
2023-03-04T01:14:32.276Z,97084.94
2023-03-04T01:16:59.874Z,97074.31
2023-03-04T01:19:28.946Z,97080.16
2023-03-04T01:21:56.518Z,97073.13
2023-03-04T01:24:24.061Z,97074.31
2023-03-04T01:26:51.608Z,97072.78
2023-03-04T01:29:19.120Z,97066.72
2023-03-04T01:31:46.684Z,97065.66
2023-03-04T01:34:14.443Z,97066.81
2023-03-04T01:36:43.363Z,97071.50
2023-03-04T01:39:10.898Z,97064.16
2023-03-04T01:41:38.440Z,97063.31
2023-03-04T01:44:06.966Z,97063.09
2023-03-04T01:46:34.736Z,97054.78
2023-03-04T01:49:02.430Z,97064.00
2023-03-04T01:51:30.004Z,97052.31
2023-03-04T01:53:58.922Z,97059.69
2023-03-04T01:56:30.088Z,97062.50
2023-03-04T01:59:09.738Z,97065.88
2023-03-04T02:01:38.599Z,97055.47
2023-03-04T02:04:07.697Z,97051.03
2023-03-04T02:06:36.255Z,97059.81
2023-03-04T02:09:05.796Z,97058.41
2023-03-04T02:11:33.991Z,97060.75
2023-03-04T02:14:01.596Z,97062.59
2023-03-04T02:16:29.183Z,97061.78
2023-03-04T02:18:57.010Z,97061.31
2023-03-04T02:21:27.101Z,97061.78
2023-03-04T02:24:04.316Z,97062.75
2023-03-04T02:26:35.028Z,97059.22
2023-03-04T02:29:03.881Z,97061.34
2023-03-04T02:31:34.248Z,97052.66
2023-03-04T02:34:04.607Z,97058.41
2023-03-04T02:36:33.616Z,97061.66
2023-03-04T02:39:06.635Z,97062.38
2023-03-04T02:41:36.165Z,97056.28
2023-03-04T02:44:03.763Z,97055.13
2023-03-04T02:46:31.409Z,97062.03
2023-03-04T02:48:58.990Z,97056.28
2023-03-04T02:51:26.558Z,97060.38
2023-03-04T02:53:54.153Z,97063.06
2023-03-04T02:56:21.682Z,97055.78
2023-03-04T02:58:50.596Z,97059.53
2023-03-04T03:01:18.086Z,97054.63
2023-03-04T03:03:45.580Z,97049.09
2023-03-04T03:06:13.156Z,97060.66
2023-03-04T03:08:40.680Z,97045.91
2023-03-04T03:11:09.494Z,97053.25
2023-03-04T03:13:37.148Z,97050.66
2023-03-04T03:16:06.794Z,97051.91
2023-03-04T03:18:34.351Z,97045.16
2023-03-04T03:21:01.900Z,97056.94
2023-03-04T03:23:29.423Z,97059.41
2023-03-04T03:25:56.952Z,97060.31
2023-03-04T03:28:24.450Z,97060.13
2023-03-04T03:30:51.978Z,97062.97
2023-03-04T03:33:20.831Z,97053.88
2023-03-04T03:35:48.635Z,97053.97
2023-03-04T03:38:16.444Z,97062.50
2023-03-04T03:40:44.034Z,97060.41
2023-03-04T03:43:11.928Z,97062.97
2023-03-04T03:45:39.501Z,97057.59
2023-03-04T03:48:07.370Z,97053.16
2023-03-04T03:50:36.205Z,97051.63
2023-03-04T03:53:03.846Z,97048.47
2023-03-04T03:55:31.352Z,97047.97
2023-03-04T03:57:58.956Z,97055.53
2023-03-04T04:00:26.470Z,97051.16
2023-03-04T04:02:55.608Z,97052.63
2023-03-04T04:05:23.176Z,97055.78
2023-03-04T04:07:54.071Z,97051.06
2023-03-04T04:10:22.218Z,97053.03
2023-03-04T04:12:49.807Z,97052.13
2023-03-04T04:15:17.416Z,97054.44
2023-03-04T04:17:44.996Z,97060.28
2023-03-04T04:20:13.131Z,97056.50
2023-03-04T04:22:40.634Z,97052.97
2023-03-04T04:25:10.699Z,97052.41
2023-03-04T04:27:38.413Z,97047.59
2023-03-04T04:30:07.426Z,97048.72
2023-03-04T04:32:35.152Z,97048.84
2023-03-04T04:35:02.650Z,97054.41
2023-03-04T04:37:30.216Z,97057.28
2023-03-04T04:39:57.694Z,97055.22
2023-03-04T04:42:26.922Z,97051.72
2023-03-04T04:44:54.470Z,97051.72
2023-03-04T04:47:21.970Z,97048.56
2023-03-04T04:49:49.488Z,97050.72
2023-03-04T04:52:17.026Z,97051.88
2023-03-04T04:54:44.524Z,97047.88
2023-03-04T04:57:12.055Z,97053.47
2023-03-04T04:59:40.871Z,97050.38
2023-03-04T05:02:08.382Z,97052.56
2023-03-04T05:04:35.907Z,97052.88
2023-03-04T05:07:03.470Z,97054.31
2023-03-04T05:09:31.001Z,97058.16
2023-03-04T05:11:58.569Z,97055.88
2023-03-04T05:14:26.154Z,97063.56
2023-03-04T05:16:55.101Z,97069.41
2023-03-04T05:19:22.760Z,97067.69
2023-03-04T05:21:50.458Z,97063.56
2023-03-04T05:24:18.089Z,97055.78
2023-03-04T05:26:45.630Z,97062.44
2023-03-04T05:29:13.197Z,97063.47
2023-03-04T05:31:40.809Z,97070.56
2023-03-04T05:34:09.674Z,97064.81
2023-03-04T05:36:37.247Z,97066.25
2023-03-04T05:39:04.811Z,97060.28
2023-03-04T05:41:32.304Z,97071.97
2023-03-04T05:43:59.824Z,97065.22
2023-03-04T05:46:27.447Z,97072.78
2023-03-04T05:48:55.783Z,97073.63
2023-03-04T05:51:24.780Z,97071.47
2023-03-04T05:53:52.307Z,97077.63
2023-03-04T05:56:21.438Z,97074.94
2023-03-04T05:58:48.939Z,97075.88
2023-03-04T06:01:16.976Z,97076.78
2023-03-04T06:03:44.647Z,97073.09
2023-03-04T06:06:12.473Z,97073.81
2023-03-04T06:08:41.399Z,97081.31
2023-03-04T06:11:09.377Z,97078.53
2023-03-04T06:13:38.144Z,97084.38
2023-03-04T06:16:06.377Z,97088.59
2023-03-04T06:18:34.028Z,97086.03
2023-03-04T06:21:03.408Z,97090.84
2023-03-04T06:23:31.626Z,97096.78
2023-03-04T06:26:02.267Z,97098.72
2023-03-04T06:28:30.202Z,97099.25
2023-03-04T06:30:58.913Z,97108.25
2023-03-04T06:33:26.610Z,97104.56
2023-03-04T06:35:56.432Z,97111.66
2023-03-04T06:38:25.604Z,97115.06
2023-03-04T06:40:55.977Z,97114.59
2023-03-04T06:43:25.969Z,97112.66
2023-03-04T06:45:53.838Z,97112.56
2023-03-04T06:48:21.369Z,97114.19
2023-03-04T06:50:48.881Z,97121.69
2023-03-04T06:53:16.518Z,97120.75
2023-03-04T06:55:44.070Z,97125.16
2023-03-04T06:58:13.645Z,97123.22
2023-03-04T07:00:42.512Z,97133.41
2023-03-04T07:03:10.330Z,97135.13
2023-03-04T07:05:37.850Z,97140.88
2023-03-04T07:08:07.006Z,97140.22
2023-03-04T07:10:34.603Z,97142.84
2023-03-04T07:13:02.607Z,97146.44
2023-03-04T07:15:30.617Z,97150.19
2023-03-04T07:17:59.465Z,97144.25
2023-03-04T07:20:27.005Z,97151.03
2023-03-04T07:22:54.515Z,97155.94
2023-03-04T07:25:22.021Z,97161.19
2023-03-04T07:27:49.498Z,97149.47
2023-03-04T07:30:17.547Z,97170.50
2023-03-04T07:32:45.107Z,97169.78
2023-03-04T07:35:13.953Z,97175.81
2023-03-04T07:37:41.585Z,97176.16
2023-03-04T07:40:10.645Z,97180.19
2023-03-04T07:42:38.196Z,97176.41
2023-03-04T07:45:07.933Z,97178.66
2023-03-04T07:47:37.700Z,97181.97
2023-03-04T07:50:05.924Z,97181.34
2023-03-04T07:52:34.744Z,97182.50
2023-03-04T07:55:02.781Z,97178.28
2023-03-04T07:57:30.330Z,97179.94
2023-03-04T07:59:57.863Z,97178.28
2023-03-04T08:02:25.437Z,97182.38
2023-03-04T08:04:52.937Z,97180.75
2023-03-04T08:07:20.464Z,97192.75
2023-03-04T08:09:49.732Z,97201.47
2023-03-04T08:12:17.258Z,97188.13
2023-03-04T08:14:44.850Z,97187.63
2023-03-04T08:17:14.758Z,97190.28
2023-03-04T08:19:42.266Z,97185.97
2023-03-04T08:22:09.942Z,97192.63
2023-03-04T08:24:37.589Z,97189.16
2023-03-04T08:27:06.676Z,97187.00
2023-03-04T08:29:34.242Z,97189.25
2023-03-04T08:32:01.926Z,97199.03
2023-03-04T08:34:29.923Z,97204.56
2023-03-04T08:36:57.442Z,97194.06
2023-03-04T08:39:24.970Z,97200.16
2023-03-04T08:41:52.548Z,97196.56
2023-03-04T08:44:21.366Z,97199.03
2023-03-04T08:46:48.905Z,97197.78
2023-03-04T08:49:16.461Z,97202.00
2023-03-04T08:51:45.226Z,97201.13
2023-03-04T08:54:13.092Z,97209.03
2023-03-04T08:56:41.651Z,97200.59
2023-03-04T08:59:09.153Z,97197.19
2023-03-04T09:01:38.103Z,97207.13
2023-03-04T09:04:05.945Z,97200.03
2023-03-04T09:06:33.515Z,97209.81
2023-03-04T09:09:01.037Z,97205.97
2023-03-04T09:11:28.623Z,97210.28
2023-03-04T09:13:56.123Z,97200.34
2023-03-04T09:16:24.304Z,97205.16
2023-03-04T09:18:53.254Z,97205.22
2023-03-04T09:21:20.912Z,97198.94
2023-03-04T09:23:48.401Z,97204.78
2023-03-04T09:26:18.566Z,97203.31
2023-03-04T09:28:46.087Z,97198.78
2023-03-04T09:31:14.702Z,97204.88
2023-03-04T09:33:43.120Z,97212.16
2023-03-04T09:36:14.603Z,97209.50
2023-03-04T09:38:43.000Z,97210.31
2023-03-04T09:41:15.343Z,97208.34
2023-03-04T09:43:45.162Z,97206.84
2023-03-04T09:46:16.138Z,97207.59
2023-03-04T09:48:47.566Z,97205.25
2023-03-04T09:51:41.601Z,97206.91
2023-03-04T09:54:12.063Z,97202.69
2023-03-04T09:56:41.295Z,97210.41
2023-03-04T09:59:18.312Z,97206.22
2023-03-04T10:01:50.754Z,97209.03
2023-03-04T10:04:27.582Z,97200.69
2023-03-04T10:06:57.479Z,97198.94
2023-03-04T10:09:29.453Z,97200.13
2023-03-04T10:12:03.997Z,97199.66
2023-03-04T10:14:36.544Z,97204.09
2023-03-04T10:17:11.170Z,97198.38
2023-03-04T10:19:50.167Z,97196.63
2023-03-04T10:22:27.676Z,97195.09
2023-03-04T10:24:57.937Z,97199.19
2023-03-04T10:27:27.001Z,97194.78
2023-03-04T10:29:54.498Z,97193.59
2023-03-04T10:32:22.206Z,97196.72
2023-03-04T10:34:49.795Z,97199.00
2023-03-04T10:37:18.683Z,97198.44
2023-03-04T10:39:49.331Z,97197.22
2023-03-04T10:42:37.524Z,97196.19
2023-03-04T10:45:20.096Z,97202.63
2023-03-04T10:47:53.599Z,97199.72
2023-03-04T10:50:24.184Z,97200.22
2023-03-04T10:52:55.630Z,97193.78
2023-03-04T10:55:25.790Z,97201.41
2023-03-04T10:57:57.867Z,97189.59
2023-03-04T11:00:29.717Z,97186.56
2023-03-04T11:03:25.912Z,97181.66
2023-03-04T11:06:06.761Z,97189.03
2023-03-04T11:08:35.673Z,97177.94
2023-03-04T11:11:03.257Z,97178.19
2023-03-04T11:13:32.552Z,97171.75
2023-03-04T11:16:03.107Z,97183.25
2023-03-04T11:18:41.745Z,97174.94
2023-03-04T11:21:18.067Z,97168.97
2023-03-04T11:23:51.667Z,97174.22
2023-03-04T11:26:22.534Z,97162.50
2023-03-04T11:28:55.263Z,97166.84
2023-03-04T11:31:28.857Z,97157.25
2023-03-04T11:34:02.331Z,97163.94
2023-03-04T11:36:37.026Z,97159.03
2023-03-04T11:39:15.174Z,97155.03
2023-03-04T11:41:48.936Z,97156.59
2023-03-04T11:44:16.497Z,97156.09
2023-03-04T11:46:55.080Z,97156.44
2023-03-04T11:49:42.807Z,97158.91
2023-03-04T11:52:22.998Z,97150.97
2023-03-04T11:55:11.673Z,97143.56
2023-03-04T11:57:50.973Z,97136.06
2023-03-04T12:00:33.090Z,97139.09
2023-03-04T12:03:46.154Z,97130.09
2023-03-04T12:06:22.287Z,97134.19
2023-03-04T12:09:01.671Z,97127.63
2023-03-04T12:11:42.691Z,97121.66
2023-03-04T12:14:23.029Z,97120.06
2023-03-04T12:17:19.145Z,97118.41
2023-03-04T12:20:17.065Z,97111.38
2023-03-04T12:22:47.586Z,97114.41
2023-03-04T12:25:41.086Z,97105.16
2023-03-04T12:28:25.722Z,97102.34
2023-03-04T12:31:07.559Z,97100.38
2023-03-04T12:33:46.276Z,97097.09
2023-03-04T12:36:20.432Z,97091.97
2023-03-04T12:39:01.022Z,97088.56
2023-03-04T12:41:39.523Z,97087.06
2023-03-04T12:44:18.174Z,97078.75
2023-03-04T12:47:11.593Z,97073.47
2023-03-04T12:49:51.454Z,97077.56
2023-03-04T12:52:27.327Z,97071.94
2023-03-04T12:54:58.967Z,97070.63
2023-03-04T12:57:31.457Z,97078.84
2023-03-04T13:00:10.286Z,97073.31
2023-03-04T13:03:06.453Z,97070.16
2023-03-04T13:05:52.576Z,97065.75
2023-03-04T13:08:33.073Z,97064.34
2023-03-04T13:11:04.847Z,97065.84
2023-03-04T13:13:38.250Z,97069.56
2023-03-04T13:19:39.599Z,97068.88
2023-03-04T13:22:34.687Z,97065.09
2023-03-04T13:25:34.404Z,97065.09
2023-03-04T13:28:26.672Z,97064.28
2023-03-04T13:31:26.520Z,97057.13
2023-03-04T13:34:04.427Z,97067.88
2023-03-04T13:37:01.192Z,97068.09
2023-03-04T13:39:34.111Z,97058.81
2023-03-04T13:42:03.252Z,97060.31
2023-03-04T13:44:59.564Z,97061.84
2023-03-04T13:48:22.605Z,97058.00
2023-03-04T13:51:40.611Z,97059.88
2023-03-04T13:54:15.026Z,97064.44
2023-03-04T13:56:46.386Z,97066.00
2023-03-04T13:59:26.914Z,97070.25
2023-03-04T14:02:03.324Z,97070.50
2023-03-04T14:04:36.181Z,97073.06
2023-03-04T14:07:26.825Z,97076.34
2023-03-04T14:10:00.961Z,97072.13
2023-03-04T14:12:30.929Z,97068.34
2023-03-04T14:15:01.161Z,97062.72
2023-03-04T14:17:31.889Z,97058.97
2023-03-04T14:20:03.146Z,97056.50
2023-03-04T14:22:34.894Z,97058.28
2023-03-04T14:25:04.780Z,97057.84
2023-03-04T14:27:36.205Z,97057.94
2023-03-04T14:30:08.194Z,97051.28
2023-03-04T14:32:36.296Z,97051.50
2023-03-04T14:35:06.839Z,97050.00
2023-03-04T14:37:44.657Z,97052.81
2023-03-04T14:40:27.500Z,97054.44
2023-03-04T14:45:52.903Z,97045.91
2023-03-04T14:48:26.309Z,97045.22
2023-03-04T14:51:27.139Z,97039.38
2023-03-04T14:57:32.507Z,97035.66
2023-03-04T15:03:56.320Z,97031.63
2023-03-04T15:06:30.014Z,97030.00
2023-03-04T15:09:39.251Z,97033.06
2023-03-04T15:12:30.598Z,97032.84
2023-03-04T15:15:16.288Z,97036.59
2023-03-04T15:17:45.711Z,97023.03
2023-03-04T15:20:24.132Z,97026.06
2023-03-04T15:23:07.561Z,97025.25
2023-03-04T15:25:37.122Z,97027.69
2023-03-04T15:28:05.441Z,97020.13
2023-03-04T15:30:35.195Z,97020.34
2023-03-04T15:33:07.760Z,97017.88
2023-03-04T15:35:35.422Z,97010.84
2023-03-04T15:38:04.176Z,97015.44
2023-03-04T15:58:17.799Z,97015.69
2023-03-04T16:00:45.527Z,97008.47
2023-03-04T16:03:17.962Z,97018.34
2023-03-04T16:05:48.096Z,97015.75
2023-03-04T16:08:18.119Z,97014.38
2023-03-04T16:10:50.802Z,97015.53
2023-03-04T16:13:20.370Z,97015.44
2023-03-04T16:15:51.443Z,97006.47
2023-03-04T16:18:19.653Z,97011.38
2023-03-04T16:20:48.777Z,97011.25
2023-03-04T16:23:19.941Z,97014.41
2023-03-04T16:25:52.261Z,97021.75
2023-03-04T16:28:26.989Z,97018.00
2023-03-04T16:30:57.207Z,97016.81
2023-03-04T16:33:24.969Z,97021.97
2023-03-04T16:35:53.034Z,97021.28
2023-03-04T16:38:28.068Z,97021.28
2023-03-04T16:40:58.767Z,97028.16
2023-03-04T16:43:27.014Z,97029.94
2023-03-04T16:45:57.582Z,97030.31
2023-03-04T16:48:25.743Z,97022.00
2023-03-04T16:50:53.363Z,97027.16
2023-03-04T16:53:32.516Z,97031.38
2023-03-04T16:56:05.616Z,97030.69
2023-03-04T16:58:33.688Z,97040.16
2023-03-04T17:01:02.024Z,97039.00
2023-03-04T17:03:29.803Z,97039.09
2023-03-04T17:05:57.623Z,97036.91
2023-03-04T17:08:36.281Z,97034.91
2023-03-04T17:11:11.261Z,97043.69
2023-03-04T17:13:44.244Z,97032.81
2023-03-04T17:16:13.134Z,97037.03
2023-03-04T17:18:58.021Z,97038.66
2023-03-04T17:21:29.609Z,97028.38
2023-03-04T17:24:04.264Z,97030.94
2023-03-04T17:26:38.106Z,97025.78
2023-03-04T17:29:08.621Z,97023.09
2023-03-04T17:31:42.936Z,97022.84
2023-03-04T17:34:14.100Z,97021.91
2023-03-04T17:39:28.497Z,97029.53
2023-03-04T17:42:07.654Z,97025.88
2023-03-04T17:44:39.360Z,97030.78
2023-03-04T17:47:12.887Z,97035.00
2023-03-04T17:49:47.050Z,97032.44
2023-03-04T17:52:25.803Z,97030.69
2023-03-04T17:54:57.450Z,97032.28
2023-03-04T17:57:33.318Z,97038.84
2023-03-04T18:00:01.471Z,97031.59
2023-03-04T18:02:35.471Z,97022.53
2023-03-04T18:05:07.635Z,97029.19
2023-03-04T18:07:43.727Z,97029.19
2023-03-04T18:10:14.405Z,97035.03
2023-03-04T18:12:56.761Z,97026.63
2023-03-04T18:35:04.497Z,97018.34
2023-03-04T18:37:32.595Z,97012.59
2023-03-04T18:40:00.465Z,97016.25
2023-03-04T18:42:30.755Z,97020.06
2023-03-04T18:45:01.737Z,97025.00
2023-03-04T18:47:33.809Z,97030.03
2023-03-04T18:50:05.227Z,97027.09
2023-03-04T18:52:33.028Z,97026.72
2023-03-04T18:55:01.395Z,97020.59
2023-03-04T18:57:29.228Z,97027.13
2023-03-04T19:00:00.289Z,97020.81
2023-03-04T19:02:32.686Z,97019.84
2023-03-04T19:05:07.053Z,97022.69
2023-03-04T19:07:34.581Z,97018.47
2023-03-04T19:10:02.275Z,97020.38
2023-03-04T19:12:30.170Z,97016.41
2023-03-04T19:14:57.699Z,97024.13
2023-03-04T19:17:25.631Z,97022.38
2023-03-04T19:19:53.116Z,97020.38
2023-03-04T19:22:21.960Z,97015.22
2023-03-04T19:24:49.600Z,97016.72
2023-03-04T19:27:17.142Z,97012.25
2023-03-04T19:29:44.796Z,97020.69
2023-03-04T19:32:12.376Z,97017.25
2023-03-04T19:34:40.009Z,97016.72
2023-03-04T19:37:07.584Z,97020.38
2023-03-04T19:39:36.513Z,97012.88
2023-03-04T19:42:04.186Z,97012.75
2023-03-04T19:44:32.053Z,97012.75
2023-03-04T19:46:59.993Z,97009.22
2023-03-04T19:49:27.587Z,97011.56
2023-03-04T19:51:55.136Z,97002.75
2023-03-04T19:54:22.753Z,97004.97
2023-03-04T19:56:51.640Z,97013.38
2023-03-04T19:59:19.465Z,97004.84
2023-03-04T20:01:51.682Z,97009.72
2023-03-04T20:04:21.027Z,97003.66
2023-03-04T20:06:50.909Z,97000.91
2023-03-04T20:09:19.825Z,96997.16
2023-03-04T20:11:57.741Z,97005.59
2023-03-04T20:14:28.349Z,97005.59
2023-03-04T20:17:00.642Z,97001.50
2023-03-04T20:19:28.418Z,97009.22
2023-03-04T20:21:57.781Z,97006.78
2023-03-04T20:24:25.882Z,97007.03
2023-03-04T20:26:53.782Z,97021.44
2023-03-04T20:29:21.319Z,97012.78
2023-03-04T20:31:50.217Z,97014.28
2023-03-04T20:34:17.791Z,97010.75
2023-03-04T20:36:45.605Z,97011.00
2023-03-04T20:39:27.433Z,97003.38
2023-03-04T20:41:56.227Z,96999.56
2023-03-04T20:44:23.813Z,97003.34
2023-03-04T20:46:53.084Z,97017.16
2023-03-04T20:49:23.910Z,97013.50
2023-03-04T20:51:51.809Z,97010.09
2023-03-04T20:54:19.617Z,96995.44
2023-03-04T20:56:47.719Z,96994.63
2023-03-04T20:59:15.729Z,97003.34
2023-03-04T21:01:47.780Z,97007.91
2023-03-04T21:04:17.568Z,97005.44
2023-03-04T21:06:47.295Z,96997.47
2023-03-04T21:09:16.694Z,96993.72
2023-03-04T21:11:44.736Z,96983.13
2023-03-04T21:14:15.381Z,96982.19
2023-03-04T21:16:43.500Z,96983.84
2023-03-04T21:19:17.746Z,96977.97
2023-03-04T21:21:45.793Z,96977.03
2023-03-04T21:24:15.561Z,96975.84
2023-03-04T21:26:45.217Z,96979.25
2023-03-04T21:29:13.155Z,96982.38
2023-03-04T21:31:42.612Z,96976.13
2023-03-04T21:34:18.398Z,96979.00
2023-03-04T21:36:46.047Z,96972.44
2023-03-04T21:39:17.299Z,96972.31
2023-03-04T21:41:44.907Z,96970.44
2023-03-04T21:44:22.659Z,96960.81
2023-03-04T21:46:56.596Z,96965.13
2023-03-04T21:49:25.932Z,96969.75
2023-03-04T21:51:53.469Z,96971.50
2023-03-04T21:54:21.421Z,96967.06
2023-03-04T21:56:50.175Z,96966.91
2023-03-04T21:59:18.378Z,96961.75
2023-03-04T22:01:46.038Z,96964.09
2023-03-04T22:04:13.668Z,96969.78
2023-03-04T22:06:42.611Z,96963.56
2023-03-04T22:09:12.146Z,96960.06
2023-03-04T22:11:39.842Z,96960.84
2023-03-04T22:14:07.438Z,96959.78
2023-03-04T22:16:48.869Z,96953.00
2023-03-04T22:19:20.504Z,96947.53
2023-03-04T22:21:49.473Z,96951.19
2023-03-04T22:24:17.049Z,96951.88
2023-03-04T22:26:44.749Z,96941.56
2023-03-04T22:29:12.343Z,96943.47
2023-03-04T22:31:40.249Z,96943.31
2023-03-04T22:34:09.402Z,96941.31
2023-03-04T22:36:39.557Z,96945.25
2023-03-04T22:39:10.336Z,96946.75
2023-03-04T22:41:37.974Z,96937.94
2023-03-04T22:44:06.838Z,96936.06
2023-03-04T22:46:37.979Z,96934.28
2023-03-04T22:49:09.415Z,96931.88
2023-03-04T22:51:37.486Z,96931.88
2023-03-04T22:54:05.294Z,96929.28
2023-03-04T22:56:36.364Z,96932.91
2023-03-04T22:59:03.890Z,96931.28
2023-03-04T23:01:31.452Z,96930.47
2023-03-04T23:03:59.207Z,96927.22
2023-03-04T23:06:27.787Z,96925.16
2023-03-04T23:08:55.358Z,96923.75
2023-03-04T23:11:26.380Z,96927.81
2023-03-04T23:13:55.757Z,96925.72
2023-03-04T23:16:28.562Z,96925.72
2023-03-04T23:18:57.665Z,96927.22
2023-03-04T23:21:28.129Z,96926.44
2023-03-04T23:23:56.246Z,96921.97
2023-03-04T23:26:26.137Z,96918.44
2023-03-04T23:28:56.804Z,96913.97
2023-03-04T23:31:25.543Z,96914.66
2023-03-04T23:33:57.070Z,96914.66
2023-03-04T23:36:26.809Z,96908.56
2023-03-04T23:38:54.906Z,96916.16
2023-03-04T23:41:25.231Z,96915.09
2023-03-04T23:43:55.307Z,96906.41
2023-03-04T23:46:23.584Z,96907.47
2023-03-04T23:48:51.325Z,96911.16
2023-03-04T23:51:20.117Z,96905.03
2023-03-04T23:53:48.350Z,96908.97
2023-03-04T23:56:17.981Z,96904.41
2023-03-04T23:58:46.103Z,96897.19
